GMT,Max TemperatureF,Mean TemperatureF,Min TemperatureF,Max Dew PointF,MeanDew PointF,Min DewpointF,Max Humidity, Mean Humidity, Min Humidity, Max Sea Level PressureIn, Mean Sea Level PressureIn, Min Sea Level PressureIn, Max VisibilityMiles, Mean VisibilityMiles, Min VisibilityMiles, Max Wind SpeedMPH, Mean Wind SpeedMPH, Max Gust SpeedMPH,PrecipitationIn, CloudCover, Events, WindDirDegrees
2013-10-1,63,61,59,61,60,58,100,95,89,29.68,29.67,29.65,6,4,2,17,12,,0.01,6,Rain,123
2013-10-2,65,62,59,63,61,59,100,95,89,29.80,29.74,29.68,6,4,2,16,11,,0.20,6,Rain,165
2013-10-3,66,63,60,64,61,58,100,94,84,29.80,29.64,29.56,6,5,1,25,10,31,0.55,3,Rain,140
2013-10-4,68,62,55,63,58,53,100,86,66,29.98,29.79,29.56,6,6,2,23,12,38,0.04,4,Rain,235
2013-10-5,64,56,46,57,52,46,100,83,56,30.27,30.17,29.98,6,6,6,9,4,,0.00,2,,301
2013-10-6,69,54,38,59,51,40,100,90,64,30.30,30.28,30.27,6,5,0,8,3,,0.01,1,Fog,104
2013-10-7,66,56,47,61,56,48,100,94,75,30.30,30.27,30.24,6,4,0,13,4,,0.00,5,Fog,190
2013-10-8,68,56,45,63,56,45,100,92,67,30.30,30.28,30.27,6,5,0,9,4,,0.02,4,Fog-Rain,277
2013-10-9,59,52,46,56,50,39,100,85,62,30.30,30.17,30.09,6,6,0,16,7,,0.00,4,Fog,312
2013-10-10,55,48,40,41,38,35,87,68,40,30.24,30.20,30.12,6,6,6,15,9,,0.00,1,,346
2013-10-11,60,50,39,50,45,36,87,73,53,30.21,30.14,30.09,6,6,6,23,14,37,0.00,4,Rain,10
2013-10-12,58,50,42,54,47,41,100,84,60,30.12,30.08,30.04,6,6,6,21,12,32,0.12,3,,40
2013-10-13,58,50,41,54,50,46,100,95,76,30.06,29.93,29.86,6,6,3,13,5,,0.24,5,Rain,296
2013-10-14,57,50,44,52,47,43,100,89,67,29.86,29.83,29.77,6,5,0,15,6,,0.00,2,Fog-Rain,304
2013-10-15,62,50,37,52,45,37,100,87,53,29.92,29.86,29.80,6,5,0,6,3,,0.00,1,Fog,68
2013-10-16,63,52,42,59,52,43,100,82,55,29.92,29.77,29.62,6,6,2,25,13,36,0.28,2,Rain,216
2013-10-17,66,58,51,57,54,50,100,83,61,29.98,29.95,29.86,6,6,6,13,7,,0.00,2,,215
2013-10-18,61,58,54,57,56,54,100,90,76,29.98,29.82,29.65,6,6,6,21,11,30,0.03,3,Rain,140
2013-10-19,64,60,55,59,57,54,100,89,67,29.65,29.61,29.59,6,6,5,21,13,32,0.02,3,Rain,189
2013-10-20,60,56,53,56,54,50,94,86,77,29.71,29.62,29.56,6,6,1,17,13,25,0.47,3,Rain-Thunderstorm,203
2013-10-21,63,59,55,59,58,54,100,94,81,29.71,29.59,29.50,6,4,1,25,16,37,0.39,5,Rain,190
2013-10-22,62,60,59,60,58,54,100,90,75,29.47,29.31,29.18,6,6,2,25,17,37,0.16,4,Rain,181
2013-10-23,61,52,44,57,50,43,94,80,54,29.83,29.55,29.18,6,6,6,20,13,30,0.00,2,Rain,251
2013-10-24,61,50,40,57,53,41,100,93,81,29.89,29.81,29.65,6,6,6,29,9,37,0.01,4,Fog-Rain,103
2013-10-25,63,60,58,59,56,55,100,88,73,29.65,29.59,29.50,6,6,4,25,17,38,0.04,5,Rain,194
2013-10-26,61,56,50,57,54,48,100,86,68,29.68,29.61,29.47,6,6,5,26,15,36,0.01,5,Rain,213
2013-10-27,59,54,50,55,50,46,100,82,64,29.50,29.44,29.21,6,6,4,21,14,36,0.55,3,Rain,220
2013-10-28,56,52,46,59,47,43,94,82,57,29.68,29.42,28.91,6,6,3,32,18,51,0.08,2,Rain,242
2013-10-29,55,48,40,46,43,39,100,84,54,30.09,29.94,29.68,6,6,6,14,8,23,0.02,1,Rain,253
2013-10-30,59,48,36,55,48,37,100,89,66,30.15,30.08,30.01,6,6,6,20,8,31,0.01,3,Rain,203
2013-10-31,56,51,46,52,50,46,100,87,71,30.04,30.00,29.92,6,6,6,15,9,,0.01,2,Rain,210